Airfield :
LOGIN :

Register | Disclaimer

   EN    FR    IT 

 










Legend :    VFR   Marginal VFR   IFR   Intensive IFR   Very Intensive IFR
Visi :
Ceiling :
>= 8 km
>= 3000ft
5 to 8 km
1000 to 3000 ft
1500m to 5 km
500 to 1000 ft
800 to 1500m
200 to 500 ft
< 800m
< 200 ft
Symbols :   Thunderstorms  Fog  Heavy snow  Heavy precipitations  Wind > 20 kt
SIGMETs :     Misc.  Thunderstorms  Icing  Turbulence  Mountain Waves  Volcanic Ashes






- Airport Elevation : 1548 ft


LKNA - Náměšť Air Base

CURRENT METAR :
  • 250230Z 28006KT CAVOK 08/07 Q1025 RMK BLU

EXPIRED METARs :
  • 250200Z 28004KT 9999 FEW034 OVC052 08/07 Q1025 RMK BLU
  • 250130Z 30005KT 9999 FEW035 BKN046 07/06 Q1026 RMK BLU
  • 250100Z 28006KT 9999 FEW043 BKN081 08/06 Q1026 RMK BLU
  • 250030Z 29008KT 9999 -RA SCT045 OVC090 08/07 Q1026 RMK BLU
  • 250000Z 28008KT 9999 FEW046 OVC110 08/07 Q1026 RMK BLU

TAF TAF LKNA
Valid from the 25 at 00:00 until the 26 at 00:00 UTC


242300Z 2500/2600 30010KT 9999 BKN040
TEMPO 2500/2508 6000 RA BKN017
TEMPO 2506/2520 32012G24KT 7000 SHRA BKN022TCU



MET'MAP, your aeronautical weather chart ! - Copyright ORBIFLY December 2007 - Disclaimer

ORBIFLY MET'MAP TEAM :

Programming & Development : Alexandra Zaïnal
Concept & original design : Baudouin d'Aumeries
Assistance for programming : Marc-Olivier Méhu
Technical & hardware support : Manuel Goepfert

Contact : metmap@orbifly.com




SOURCES & CREDITS :

   NOAA